Time,TemperatureF,DewpointF,PressureIn,WindDirection,WindDirectionDegrees,WindSpeedMPH,WindSpeedGustMPH,Humidity,HourlyPrecipIn,Conditions,Clouds,dailyrainin,SoftwareType,DateUTC
2013-01-10 00:03:00,36.0,32.0,29.76,North,360,0.0,-999.0,86,-99.99,,,-99.99,,2013-01-10 05:03:00,
2013-01-10 00:12:00,36.0,32.0,29.76,North,360,0.0,-999.0,86,-99.99,,,-99.99,,2013-01-10 05:12:00,
2013-01-10 00:23:00,36.0,32.0,29.77,North,360,0.0,-999.0,84,-99.99,,,-99.99,,2013-01-10 05:23:00,
2013-01-10 00:33:00,35.0,31.0,29.77,North,360,0.0,-999.0,84,-99.99,,,-99.99,,2013-01-10 05:33:00,
2013-01-10 00:43:00,35.0,31.0,29.77,North,360,0.0,-999.0,84,-99.99,,,-99.99,,2013-01-10 05:43:00,
2013-01-10 00:53:00,35.0,31.0,29.77,North,360,0.0,-999.0,84,-99.99,,,-99.99,,2013-01-10 05:53:00,
2013-01-10 01:02:00,33.0,30.0,29.78,North,360,0.0,-999.0,87,-99.99,,,-99.99,,2013-01-10 06:02:00,
2013-01-10 01:12:00,33.0,30.0,29.78,North,360,0.0,-999.0,87,-99.99,,,-99.99,,2013-01-10 06:12:00,
2013-01-10 01:22:00,33.0,29.0,29.79,NW,311,1.0,-999.0,84,-99.99,,,-99.99,,2013-01-10 06:22:00,
2013-01-10 01:32:00,36.0,29.0,29.80,NW,319,1.0,-999.0,75,-99.99,,,-99.99,,2013-01-10 06:32:00,
2013-01-10 01:42:00,36.0,29.0,29.80,NW,319,1.0,-999.0,75,-99.99,,,-99.99,,2013-01-10 06:42:00,
2013-01-10 01:52:00,36.0,29.0,29.80,NW,319,1.0,-999.0,75,-99.99,,,-99.99,,2013-01-10 06:52:00,
2013-01-10 02:02:00,41.0,27.0,29.82,NW,307,8.0,-999.0,58,-99.99,,,-99.99,,2013-01-10 07:02:00,
2013-01-10 02:12:00,41.0,27.0,29.82,NW,307,8.0,-999.0,58,-99.99,,,-99.99,,2013-01-10 07:12:00,
2013-01-10 02:22:00,41.0,26.0,29.83,NW,310,5.0,-999.0,54,-99.99,,,-99.99,,2013-01-10 07:22:00,
2013-01-10 02:32:00,41.0,26.0,29.84,WNW,285,6.0,-999.0,55,-99.99,,,-99.99,,2013-01-10 07:32:00,
2013-01-10 02:42:00,41.0,26.0,29.84,WNW,285,6.0,-999.0,55,-99.99,,,-99.99,,2013-01-10 07:42:00,
2013-01-10 02:52:00,41.0,27.0,29.84,WNW,287,5.0,-999.0,56,-99.99,,,-99.99,,2013-01-10 07:52:00,
2013-01-10 03:02:00,40.0,26.0,29.85,WNW,285,5.0,-999.0,58,-99.99,,,-99.99,,2013-01-10 08:02:00,
2013-01-10 03:12:00,40.0,26.0,29.85,WNW,285,5.0,-999.0,58,-99.99,,,-99.99,,2013-01-10 08:12:00,
2013-01-10 03:22:00,40.0,27.0,29.85,WNW,283,5.0,-999.0,59,-99.99,,,-99.99,,2013-01-10 08:22:00,
2013-01-10 03:32:00,40.0,27.0,29.85,WNW,300,4.0,-999.0,60,-99.99,,,-99.99,,2013-01-10 08:32:00,
2013-01-10 03:42:00,40.0,27.0,29.85,WNW,300,4.0,-999.0,60,-99.99,,,-99.99,,2013-01-10 08:42:00,
2013-01-10 03:53:00,39.0,27.0,29.85,WNW,294,3.0,-999.0,61,-99.99,,,-99.99,,2013-01-10 08:53:00,
2013-01-10 04:02:00,39.0,27.0,29.86,WNW,296,1.0,-999.0,63,-99.99,,,-99.99,,2013-01-10 09:02:00,
2013-01-10 04:12:00,39.0,27.0,29.86,WNW,296,1.0,-999.0,63,-99.99,,,-99.99,,2013-01-10 09:12:00,
2013-01-10 04:22:00,39.0,27.0,29.88,NNW,330,2.0,-999.0,63,-99.99,,,-99.99,,2013-01-10 09:22:00,
2013-01-10 04:32:00,38.0,27.0,29.88,NNW,330,0.0,-999.0,64,-99.99,,,-99.99,,2013-01-10 09:32:00,
2013-01-10 04:42:00,38.0,27.0,29.88,NNW,330,0.0,-999.0,64,-99.99,,,-99.99,,2013-01-10 09:42:00,
2013-01-10 04:53:00,37.0,27.0,29.89,NNW,330,0.0,-999.0,67,-99.99,,,-99.99,,2013-01-10 09:53:00,
2013-01-10 05:03:00,36.0,27.0,29.88,NW,326,2.0,-999.0,69,-99.99,,,-99.99,,2013-01-10 10:03:00,
2013-01-10 05:12:00,36.0,27.0,29.88,NW,326,2.0,-999.0,69,-99.99,,,-99.99,,2013-01-10 10:12:00,
2013-01-10 05:22:00,37.0,27.0,29.89,NW,320,2.0,-999.0,67,-99.99,,,-99.99,,2013-01-10 10:22:00,
2013-01-10 05:32:00,37.0,27.0,29.91,ENE,65,1.0,-999.0,66,-99.99,,,-99.99,,2013-01-10 10:32:00,
2013-01-10 05:42:00,37.0,27.0,29.91,ENE,65,1.0,-999.0,66,-99.99,,,-99.99,,2013-01-10 10:42:00,
2013-01-10 05:53:00,34.0,26.0,29.92,ENE,65,0.0,-999.0,71,-99.99,,,-99.99,,2013-01-10 10:53:00,
2013-01-10 06:02:00,32.0,25.0,29.93,ENE,65,0.0,-999.0,75,-99.99,,,-99.99,,2013-01-10 11:02:00,
2013-01-10 06:12:00,32.0,25.0,29.93,ENE,65,0.0,-999.0,75,-99.99,,,-99.99,,2013-01-10 11:12:00,
2013-01-10 06:22:00,31.0,25.0,29.94,ENE,60,0.0,-999.0,77,-99.99,,,-99.99,,2013-01-10 11:22:00,
2013-01-10 06:33:00,31.0,23.0,29.95,NNW,333,0.0,-999.0,73,-99.99,,,-99.99,,2013-01-10 11:33:00,
2013-01-10 06:43:00,31.0,23.0,29.95,NNW,333,0.0,-999.0,73,-99.99,,,-99.99,,2013-01-10 11:43:00,
2013-01-10 06:53:00,32.0,23.0,29.96,NNW,336,0.0,-999.0,69,-99.99,,,-99.99,,2013-01-10 11:53:00,
2013-01-10 07:03:00,32.0,23.0,29.97,NNW,336,0.0,-999.0,70,-99.99,,,-99.99,,2013-01-10 12:03:00,
2013-01-10 07:12:00,32.0,23.0,29.97,NNW,336,0.0,-999.0,70,-99.99,,,-99.99,,2013-01-10 12:12:00,
2013-01-10 07:22:00,30.0,22.0,29.98,NNW,336,0.0,-999.0,73,-99.99,,,-99.99,,2013-01-10 12:22:00,
2013-01-10 07:33:00,29.0,22.0,29.98,NNW,336,0.0,-999.0,74,-99.99,,,-99.99,,2013-01-10 12:33:00,
2013-01-10 07:43:00,29.0,22.0,29.98,NNW,336,0.0,-999.0,74,-99.99,,,-99.99,,2013-01-10 12:43:00,
2013-01-10 07:53:00,31.0,23.0,29.99,North,355,0.0,-999.0,72,-99.99,,,-99.99,,2013-01-10 12:53:00,
2013-01-10 08:02:00,31.0,23.0,30.01,North,355,0.0,-999.0,71,-99.99,,,-99.99,,2013-01-10 13:02:00,
2013-01-10 08:12:00,31.0,23.0,30.01,North,355,0.0,-999.0,71,-99.99,,,-99.99,,2013-01-10 13:12:00,
2013-01-10 08:22:00,30.0,22.0,30.02,North,355,0.0,-999.0,72,-99.99,,,-99.99,,2013-01-10 13:22:00,
2013-01-10 08:32:00,30.0,23.0,30.04,North,355,0.0,-999.0,74,-99.99,,,-99.99,,2013-01-10 13:32:00,
2013-01-10 08:42:00,30.0,23.0,30.04,North,355,0.0,-999.0,74,-99.99,,,-99.99,,2013-01-10 13:42:00,
2013-01-10 08:53:00,31.0,24.0,30.05,North,355,0.0,-999.0,74,-99.99,,,-99.99,,2013-01-10 13:53:00,
2013-01-10 09:02:00,33.0,24.0,30.05,WNW,288,2.0,-999.0,68,-99.99,,,-99.99,,2013-01-10 14:02:00,
2013-01-10 09:12:00,33.0,24.0,30.05,WNW,288,2.0,-999.0,68,-99.99,,,-99.99,,2013-01-10 14:12:00,
2013-01-10 09:22:00,36.0,25.0,30.05,NW,308,1.0,-999.0,64,-99.99,,,-99.99,,2013-01-10 14:22:00,
2013-01-10 09:33:00,37.0,25.0,30.06,NW,325,1.0,-999.0,62,-99.99,,,-99.99,,2013-01-10 14:33:00,
2013-01-10 09:43:00,37.0,25.0,30.06,NW,325,1.0,-999.0,62,-99.99,,,-99.99,,2013-01-10 14:43:00,
2013-01-10 09:53:00,38.0,25.0,30.06,NNW,339,2.0,-999.0,60,-99.99,,,-99.99,,2013-01-10 14:53:00,
2013-01-10 10:03:00,39.0,25.0,30.07,NNW,333,2.0,-999.0,57,-99.99,,,-99.99,,2013-01-10 15:03:00,
2013-01-10 10:12:00,39.0,25.0,30.07,NNW,333,2.0,-999.0,57,-99.99,,,-99.99,,2013-01-10 15:12:00,
2013-01-10 10:23:00,39.0,25.0,30.08,WNW,303,3.0,-999.0,56,-99.99,,,-99.99,,2013-01-10 15:23:00,
2013-01-10 10:33:00,40.0,25.0,30.08,NNW,331,3.0,-999.0,55,-99.99,,,-99.99,,2013-01-10 15:33:00,
2013-01-10 10:43:00,40.0,25.0,30.08,NNW,331,3.0,-999.0,55,-99.99,,,-99.99,,2013-01-10 15:43:00,
2013-01-10 10:53:00,41.0,26.0,30.08,NW,309,3.0,-999.0,54,-99.99,,,-99.99,,2013-01-10 15:53:00,
2013-01-10 11:03:00,41.0,25.0,30.08,WNW,300,4.0,-999.0,52,-99.99,,,-99.99,,2013-01-10 16:03:00,
2013-01-10 11:13:00,41.0,25.0,30.08,WNW,300,4.0,-999.0,52,-99.99,,,-99.99,,2013-01-10 16:13:00,
2013-01-10 11:23:00,41.0,23.0,30.07,NW,318,4.0,-999.0,49,-99.99,,,-99.99,,2013-01-10 16:23:00,
2013-01-10 11:33:00,42.0,24.0,30.07,NNW,327,3.0,-999.0,49,-99.99,,,-99.99,,2013-01-10 16:33:00,
2013-01-10 11:43:00,42.0,24.0,30.07,NNW,327,3.0,-999.0,49,-99.99,,,-99.99,,2013-01-10 16:43:00,
2013-01-10 11:53:00,42.0,24.0,30.06,NW,321,4.0,-999.0,48,-99.99,,,-99.99,,2013-01-10 16:53:00,
2013-01-10 12:03:00,42.0,24.0,30.05,WNW,296,4.0,-999.0,48,-99.99,,,-99.99,,2013-01-10 17:03:00,
2013-01-10 12:12:00,42.0,24.0,30.05,WNW,296,4.0,-999.0,48,-99.99,,,-99.99,,2013-01-10 17:12:00,
2013-01-10 12:22:00,43.0,25.0,30.04,NW,309,3.0,-999.0,48,-99.99,,,-99.99,,2013-01-10 17:22:00,
2013-01-10 12:33:00,43.0,24.0,30.04,NW,309,3.0,-999.0,47,-99.99,,,-99.99,,2013-01-10 17:33:00,
2013-01-10 12:43:00,43.0,24.0,30.04,NW,309,3.0,-999.0,47,-99.99,,,-99.99,,2013-01-10 17:43:00,
2013-01-10 12:53:00,43.0,24.0,30.03,North,355,3.0,-999.0,46,-99.99,,,-99.99,,2013-01-10 17:53:00,
2013-01-10 13:03:00,43.0,24.0,30.03,NW,325,3.0,-999.0,46,-99.99,,,-99.99,,2013-01-10 18:03:00,
2013-01-10 13:12:00,43.0,25.0,30.03,NW,310,5.0,-999.0,48,-99.99,,,-99.99,,2013-01-10 18:12:00,
2013-01-10 13:23:00,43.0,25.0,30.03,NW,310,5.0,-999.0,48,-99.99,,,-99.99,,2013-01-10 18:23:00,
2013-01-10 13:33:00,43.0,24.0,30.03,WNW,301,3.0,-999.0,46,-99.99,,,-99.99,,2013-01-10 18:33:00,
2013-01-10 13:43:00,43.0,24.0,30.04,NNW,336,3.0,-999.0,46,-99.99,,,-99.99,,2013-01-10 18:43:00,
2013-01-10 13:53:00,43.0,24.0,30.04,NNW,336,3.0,-999.0,46,-99.99,,,-99.99,,2013-01-10 18:53:00,
2013-01-10 14:03:00,43.0,24.0,30.04,NNW,336,3.0,-999.0,46,-99.99,,,-99.99,,2013-01-10 19:03:00,
2013-01-10 14:13:00,44.0,25.0,30.04,WNW,302,5.0,-999.0,46,-99.99,,,-99.99,,2013-01-10 19:13:00,
2013-01-10 14:23:00,44.0,25.0,30.04,WNW,302,5.0,-999.0,46,-99.99,,,-99.99,,2013-01-10 19:23:00,
2013-01-10 14:33:00,44.0,25.0,30.04,NNW,347,4.0,-999.0,46,-99.99,,,-99.99,,2013-01-10 19:33:00,
2013-01-10 14:43:00,44.0,25.0,30.04,NNW,347,4.0,-999.0,46,-99.99,,,-99.99,,2013-01-10 19:43:00,
2013-01-10 14:53:00,44.0,24.0,30.04,NW,321,3.0,-999.0,45,-99.99,,,-99.99,,2013-01-10 19:53:00,
2013-01-10 15:03:00,44.0,24.0,30.04,NNW,348,3.0,-999.0,45,-99.99,,,-99.99,,2013-01-10 20:03:00,
2013-01-10 15:13:00,44.0,24.0,30.04,NNW,348,3.0,-999.0,45,-99.99,,,-99.99,,2013-01-10 20:13:00,
2013-01-10 15:24:00,44.0,25.0,30.05,ENE,66,3.0,-999.0,47,-99.99,,,-99.99,,2013-01-10 20:24:00,
2013-01-10 15:33:00,44.0,25.0,30.06,NW,304,2.0,-999.0,47,-99.99,,,-99.99,,2013-01-10 20:33:00,
2013-01-10 15:43:00,44.0,25.0,30.06,NW,304,2.0,-999.0,47,-99.99,,,-99.99,,2013-01-10 20:43:00,
2013-01-10 15:53:00,44.0,25.0,30.07,NE,39,2.0,-999.0,46,-99.99,,,-99.99,,2013-01-10 20:53:00,
2013-01-10 16:13:00,43.0,25.0,30.07,NNW,348,0.0,-999.0,49,-99.99,,,-99.99,,2013-01-10 21:13:00,
2013-01-10 16:23:00,43.0,25.0,30.07,NNW,348,0.0,-999.0,49,-99.99,,,-99.99,,2013-01-10 21:23:00,
2013-01-10 16:33:00,42.0,25.0,30.07,NNW,348,0.0,-999.0,50,-99.99,,,-99.99,,2013-01-10 21:33:00,
2013-01-10 16:53:00,41.0,24.0,30.07,North,360,1.0,-999.0,51,-99.99,,,-99.99,,2013-01-10 21:53:00,
2013-01-10 17:04:00,41.0,25.0,30.08,North,355,0.0,-999.0,52,-99.99,,,-99.99,,2013-01-10 22:04:00,
2013-01-10 17:13:00,40.0,25.0,30.08,North,355,0.0,-999.0,55,-99.99,,,-99.99,,2013-01-10 22:13:00,
2013-01-10 17:27:00,40.0,25.0,30.08,North,355,0.0,-999.0,55,-99.99,,,-99.99,,2013-01-10 22:27:00,
2013-01-10 17:33:00,38.0,24.0,30.09,NNE,17,0.0,-999.0,57,-99.99,,,-99.99,,2013-01-10 22:33:00,
2013-01-10 17:43:00,38.0,24.0,30.09,NNE,17,0.0,-999.0,57,-99.99,,,-99.99,,2013-01-10 22:43:00,
2013-01-10 18:03:00,37.0,24.0,30.09,ENE,61,0.0,-999.0,60,-99.99,,,-99.99,,2013-01-10 23:03:00,
2013-01-10 18:13:00,37.0,25.0,30.09,NNE,27,0.0,-999.0,61,-99.99,,,-99.99,,2013-01-10 23:13:00,
2013-01-10 18:23:00,37.0,25.0,30.09,NNE,27,0.0,-999.0,61,-99.99,,,-99.99,,2013-01-10 23:23:00,
2013-01-10 18:33:00,35.0,25.0,30.10,NNE,27,0.0,-999.0,66,-99.99,,,-99.99,,2013-01-10 23:33:00,
2013-01-10 18:43:00,35.0,25.0,30.10,NNE,27,0.0,-999.0,66,-99.99,,,-99.99,,2013-01-10 23:43:00,
2013-01-10 18:53:00,34.0,24.0,30.10,North,9,0.0,-999.0,67,-99.99,,,-99.99,,2013-01-10 23:53:00,
2013-01-10 19:03:00,34.0,24.0,30.10,North,9,0.0,-999.0,67,-99.99,,,-99.99,,2013-01-11 00:03:00,
2013-01-10 19:13:00,34.0,24.0,30.11,North,9,0.0,-999.0,67,-99.99,,,-99.99,,2013-01-11 00:13:00,
2013-01-10 19:23:00,34.0,24.0,30.11,North,9,0.0,-999.0,67,-99.99,,,-99.99,,2013-01-11 00:23:00,
2013-01-10 19:33:00,34.0,25.0,30.11,North,9,0.0,-999.0,68,-99.99,,,-99.99,,2013-01-11 00:33:00,
2013-01-10 19:43:00,34.0,25.0,30.11,North,9,0.0,-999.0,68,-99.99,,,-99.99,,2013-01-11 00:43:00,
2013-01-10 19:53:00,32.0,24.0,30.11,North,9,0.0,-999.0,71,-99.99,,,-99.99,,2013-01-11 00:53:00,
2013-01-10 20:03:00,32.0,24.0,30.11,North,9,0.0,-999.0,73,-99.99,,,-99.99,,2013-01-11 01:03:00,
2013-01-10 20:23:00,31.0,24.0,30.12,North,9,0.0,-999.0,75,-99.99,,,-99.99,,2013-01-11 01:23:00,
2013-01-10 20:34:00,30.0,24.0,30.12,North,9,0.0,-999.0,77,-99.99,,,-99.99,,2013-01-11 01:34:00,
2013-01-10 20:43:00,30.0,24.0,30.12,North,9,0.0,-999.0,77,-99.99,,,-99.99,,2013-01-11 01:43:00,
2013-01-10 20:53:00,30.0,24.0,30.12,North,9,0.0,-999.0,77,-99.99,,,-99.99,,2013-01-11 01:53:00,
2013-01-10 21:03:00,30.0,24.0,30.12,North,9,0.0,-999.0,79,-99.99,,,-99.99,,2013-01-11 02:03:00,
2013-01-10 21:13:00,30.0,24.0,30.12,North,9,0.0,-999.0,79,-99.99,,,-99.99,,2013-01-11 02:13:00,
2013-01-10 21:23:00,29.0,23.0,30.13,North,9,0.0,-999.0,79,-99.99,,,-99.99,,2013-01-11 02:23:00,
2013-01-10 21:33:00,30.0,24.0,30.13,North,9,0.0,-999.0,79,-99.99,,,-99.99,,2013-01-11 02:33:00,
2013-01-10 21:43:00,30.0,24.0,30.13,North,9,0.0,-999.0,79,-99.99,,,-99.99,,2013-01-11 02:43:00,
2013-01-10 21:54:00,29.0,23.0,30.13,North,9,0.0,-999.0,79,-99.99,,,-99.99,,2013-01-11 02:54:00,
2013-01-10 22:03:00,28.0,23.0,30.13,North,9,0.0,-999.0,82,-99.99,,,-99.99,,2013-01-11 03:03:00,
2013-01-10 22:12:00,28.0,23.0,30.13,North,9,0.0,-999.0,82,-99.99,,,-99.99,,2013-01-11 03:12:00,
2013-01-10 22:23:00,28.0,23.0,30.13,North,9,0.0,-999.0,82,-99.99,,,-99.99,,2013-01-11 03:23:00,
2013-01-10 22:33:00,29.0,24.0,30.12,NE,49,0.0,-999.0,81,-99.99,,,-99.99,,2013-01-11 03:33:00,
2013-01-10 22:43:00,29.0,24.0,30.12,NE,49,0.0,-999.0,81,-99.99,,,-99.99,,2013-01-11 03:43:00,
2013-01-10 22:53:00,29.0,23.0,30.12,NE,49,0.0,-999.0,79,-99.99,,,-99.99,,2013-01-11 03:53:00,
2013-01-10 23:02:00,29.0,24.0,30.13,NE,49,0.0,-999.0,81,-99.99,,,-99.99,,2013-01-11 04:02:00,
2013-01-10 23:12:00,29.0,24.0,30.13,NE,49,0.0,-999.0,81,-99.99,,,-99.99,,2013-01-11 04:12:00,
2013-01-10 23:22:00,28.0,23.0,30.13,NE,49,0.0,-999.0,82,-99.99,,,-99.99,,2013-01-11 04:22:00,
2013-01-10 23:33:00,28.0,24.0,30.13,NE,49,0.0,-999.0,83,-99.99,,,-99.99,,2013-01-11 04:33:00,
2013-01-10 23:43:00,28.0,24.0,30.13,NE,49,0.0,-999.0,83,-99.99,,,-99.99,,2013-01-11 04:43:00,
2013-01-10 23:53:00,28.0,24.0,30.12,NNW,340,1.0,-999.0,83,-99.99,,,-99.99,,2013-01-11 04:53:00,